createdAt,value
2022-12-29T00:01:48.877Z,1.68
2022-12-29T00:04:16.664Z,1.69
2022-12-29T00:06:44.160Z,1.71
2022-12-29T00:09:14.249Z,1.70
2022-12-29T00:11:41.383Z,1.70
2022-12-29T00:14:29.507Z,1.71
2022-12-29T00:16:56.275Z,1.71
2022-12-29T00:19:41.726Z,1.72
2022-12-29T00:22:29.688Z,1.73
2022-12-29T00:25:14.877Z,1.73
2022-12-29T00:28:06.379Z,1.73
2022-12-29T00:30:52.596Z,1.72
2022-12-29T00:33:40.014Z,1.71
2022-12-29T00:36:14.339Z,1.69
2022-12-29T00:39:04.931Z,1.68
2022-12-29T00:41:50.111Z,1.70
2022-12-29T00:44:16.865Z,1.70
2022-12-29T00:46:44.184Z,1.70
2022-12-29T00:49:31.407Z,1.72
2022-12-29T00:52:03.228Z,1.72
2022-12-29T00:54:31.257Z,1.69
2022-12-29T00:56:58.298Z,1.69
2022-12-29T00:59:25.296Z,1.66
2022-12-29T01:01:53.700Z,1.67
2022-12-29T01:04:22.725Z,1.67
2022-12-29T01:06:49.538Z,1.69
2022-12-29T01:09:35.600Z,1.69
2022-12-29T01:12:02.406Z,1.69
2022-12-29T01:14:29.110Z,1.69
2022-12-29T01:16:56.693Z,1.70
2022-12-29T01:19:23.528Z,1.69
2022-12-29T01:21:50.596Z,1.72
2022-12-29T01:24:18.644Z,1.73
2022-12-29T01:26:45.494Z,1.73
2022-12-29T01:29:12.512Z,1.75
2022-12-29T01:31:39.785Z,1.75
2022-12-29T01:34:07.000Z,1.78
2022-12-29T01:36:34.669Z,1.76
2022-12-29T01:39:01.445Z,1.77
2022-12-29T01:41:28.416Z,1.78
2022-12-29T01:43:58.399Z,1.79
2022-12-29T01:46:37.562Z,1.77
2022-12-29T01:49:09.725Z,1.78
2022-12-29T01:51:46.867Z,1.78
2022-12-29T01:54:25.872Z,1.80
2022-12-29T01:56:54.513Z,1.82
2022-12-29T01:59:25.945Z,1.85
2022-12-29T02:01:52.753Z,1.85
2022-12-29T02:04:19.851Z,1.87
2022-12-29T02:06:54.649Z,1.89
2022-12-29T02:09:21.695Z,1.89
2022-12-29T02:11:48.628Z,1.91
2022-12-29T02:14:15.769Z,1.90
2022-12-29T02:17:01.234Z,1.90
2022-12-29T02:20:04.627Z,1.89
2022-12-29T02:23:01.993Z,1.90
2022-12-29T02:26:10.722Z,1.92
2022-12-29T02:28:47.425Z,1.92
2022-12-29T02:31:45.157Z,1.92
2022-12-29T02:34:27.739Z,1.93
2022-12-29T02:36:57.160Z,1.93
2022-12-29T02:39:51.308Z,1.94
2022-12-29T02:42:30.647Z,1.95
2022-12-29T02:45:03.537Z,1.93
2022-12-29T02:47:42.047Z,1.94
2022-12-29T02:50:18.690Z,1.94
2022-12-29T02:53:09.141Z,1.94
2022-12-29T02:55:35.947Z,1.96
2022-12-29T02:58:22.990Z,1.98
2022-12-29T03:01:14.876Z,1.97
2022-12-29T03:03:41.549Z,1.98
2022-12-29T03:06:08.322Z,1.99
2022-12-29T03:09:00.864Z,1.99
2022-12-29T03:11:56.447Z,2.01
2022-12-29T03:14:53.785Z,2.02
2022-12-29T03:17:34.122Z,2.03
2022-12-29T03:20:07.535Z,2.05
2022-12-29T03:22:40.571Z,2.05
2022-12-29T03:25:22.436Z,2.06
2022-12-29T03:28:00.886Z,2.06
2022-12-29T03:30:30.639Z,2.09
2022-12-29T03:33:01.705Z,2.08
2022-12-29T03:35:32.953Z,2.10
2022-12-29T03:38:13.522Z,2.12
2022-12-29T03:40:49.481Z,2.13
2022-12-29T03:43:16.912Z,2.16
2022-12-29T03:45:44.918Z,2.19
2022-12-29T03:48:11.684Z,2.20
2022-12-29T03:50:38.875Z,2.24
2022-12-29T03:53:05.623Z,2.27
2022-12-29T03:55:32.412Z,2.31
2022-12-29T03:57:59.235Z,2.35
2022-12-29T04:00:25.978Z,2.36
2022-12-29T04:02:52.817Z,2.42
2022-12-29T04:05:19.667Z,2.45
2022-12-29T04:07:46.300Z,2.49
2022-12-29T04:10:12.963Z,2.52
2022-12-29T04:12:42.672Z,2.56
2022-12-29T04:15:10.640Z,2.61
2022-12-29T04:17:37.322Z,2.64
2022-12-29T04:20:24.092Z,2.70
2022-12-29T04:22:51.179Z,2.73
2022-12-29T04:25:17.857Z,2.76
2022-12-29T04:27:45.277Z,2.80
2022-12-29T04:30:12.450Z,2.81
2022-12-29T04:32:39.295Z,2.84
2022-12-29T04:35:06.722Z,2.87
2022-12-29T04:37:33.421Z,2.87
2022-12-29T04:40:00.739Z,2.90
2022-12-29T04:42:27.398Z,2.91
2022-12-29T04:44:54.153Z,2.93
2022-12-29T04:47:20.869Z,2.96
2022-12-29T04:49:47.569Z,2.98
2022-12-29T04:52:14.231Z,2.99
2022-12-29T04:54:41.131Z,2.99
2022-12-29T04:57:07.927Z,3.01
2022-12-29T04:59:34.647Z,3.04
2022-12-29T05:02:01.432Z,3.05
2022-12-29T05:04:28.270Z,3.07
2022-12-29T05:06:54.967Z,3.09
2022-12-29T05:09:21.647Z,3.13
2022-12-29T05:11:48.342Z,3.13
2022-12-29T05:14:15.006Z,3.14
2022-12-29T05:16:41.733Z,3.15
2022-12-29T05:19:08.386Z,3.17
2022-12-29T05:21:35.149Z,3.18
2022-12-29T05:24:01.856Z,3.20
2022-12-29T05:26:28.566Z,3.22
2022-12-29T05:28:55.404Z,3.24
2022-12-29T05:31:22.186Z,3.26
2022-12-29T05:33:48.881Z,3.26
2022-12-29T05:36:15.720Z,3.27
2022-12-29T05:38:42.371Z,3.29
2022-12-29T05:41:09.072Z,3.30
2022-12-29T05:43:35.802Z,3.30
2022-12-29T05:46:03.881Z,3.32
2022-12-29T05:48:35.939Z,3.32
2022-12-29T05:51:04.569Z,3.33
2022-12-29T05:53:31.292Z,3.35
2022-12-29T05:55:58.043Z,3.37
2022-12-29T05:58:24.739Z,3.38
2022-12-29T06:00:51.910Z,3.39
2022-12-29T06:03:18.813Z,3.42
2022-12-29T06:05:47.420Z,3.42
2022-12-29T06:08:14.148Z,3.46
2022-12-29T06:10:41.092Z,3.46
2022-12-29T06:13:07.901Z,3.46
2022-12-29T06:15:34.742Z,3.48
2022-12-29T06:18:01.594Z,3.49
2022-12-29T06:20:28.738Z,3.50
2022-12-29T06:22:55.445Z,3.51
2022-12-29T06:25:22.149Z,3.54
2022-12-29T06:27:49.425Z,3.54
2022-12-29T06:30:17.187Z,3.55
2022-12-29T06:32:44.595Z,3.58
2022-12-29T06:35:11.300Z,3.58
2022-12-29T06:37:38.178Z,3.61
2022-12-29T06:40:05.300Z,3.62
2022-12-29T06:42:31.981Z,3.61
2022-12-29T06:44:59.977Z,3.63
2022-12-29T06:47:26.683Z,3.64
2022-12-29T06:49:53.540Z,3.66
2022-12-29T06:52:20.295Z,3.69
2022-12-29T06:54:46.955Z,3.70
2022-12-29T06:57:13.780Z,3.72
2022-12-29T06:59:40.768Z,3.73
2022-12-29T07:02:07.608Z,3.74
2022-12-29T07:04:34.428Z,3.76
2022-12-29T07:07:01.456Z,3.78
2022-12-29T07:09:28.210Z,3.78
2022-12-29T07:11:54.910Z,3.80
2022-12-29T07:14:21.570Z,3.82
2022-12-29T07:16:48.233Z,3.83
2022-12-29T07:19:14.973Z,3.84
2022-12-29T07:21:47.277Z,3.84
2022-12-29T07:24:14.154Z,3.86
2022-12-29T07:26:41.037Z,3.87
2022-12-29T07:29:07.720Z,3.88
2022-12-29T07:31:34.503Z,3.89
2022-12-29T07:34:01.197Z,3.89
2022-12-29T07:36:33.987Z,3.90
2022-12-29T07:39:01.236Z,3.92
2022-12-29T07:41:27.895Z,3.92
2022-12-29T07:43:54.546Z,3.94
2022-12-29T07:46:54.463Z,3.95
2022-12-29T07:49:07.965Z,3.97
2022-12-29T07:51:34.703Z,3.98
2022-12-29T07:54:01.853Z,4.00
2022-12-29T07:56:29.115Z,4.01
2022-12-29T07:58:55.766Z,4.03
2022-12-29T08:01:24.435Z,4.03
2022-12-29T08:03:56.828Z,4.04
2022-12-29T08:06:24.192Z,4.04
2022-12-29T08:08:50.902Z,4.07
2022-12-29T08:11:17.609Z,4.08
2022-12-29T08:13:44.301Z,4.08
2022-12-29T08:16:11.025Z,4.08
2022-12-29T08:18:37.690Z,4.10
2022-12-29T08:21:05.371Z,4.09
2022-12-29T08:23:32.391Z,4.09
2022-12-29T08:26:04.620Z,4.10
2022-12-29T08:28:32.154Z,4.10
2022-12-29T08:31:00.495Z,4.10
2022-12-29T08:33:28.419Z,4.13
2022-12-29T08:36:01.562Z,4.13
2022-12-29T08:38:29.847Z,4.14
2022-12-29T08:40:58.009Z,4.14
2022-12-29T08:43:25.276Z,4.13
2022-12-29T08:45:52.171Z,4.14
2022-12-29T08:48:20.740Z,4.14
2022-12-29T08:50:55.844Z,4.15
2022-12-29T08:53:22.572Z,4.15
2022-12-29T08:56:02.378Z,4.16
2022-12-29T08:58:32.005Z,4.16
2022-12-29T09:00:58.964Z,4.16
2022-12-29T09:04:04.461Z,4.16
2022-12-29T09:06:18.683Z,4.17
2022-12-29T09:08:45.499Z,4.18
2022-12-29T09:11:15.735Z,4.18
2022-12-29T09:13:42.639Z,4.18
2022-12-29T09:16:10.068Z,4.18
2022-12-29T09:18:37.362Z,4.19
2022-12-29T09:21:06.045Z,4.22
2022-12-29T09:23:36.114Z,4.22
2022-12-29T09:26:03.726Z,4.22
2022-12-29T09:28:33.399Z,4.25
2022-12-29T09:31:01.249Z,4.27
2022-12-29T09:33:28.301Z,4.28
2022-12-29T09:35:59.409Z,4.29
2022-12-29T09:38:27.652Z,4.31
2022-12-29T09:41:20.562Z,4.33
2022-12-29T09:44:19.997Z,4.36
2022-12-29T09:46:50.800Z,4.37
2022-12-29T09:49:28.138Z,4.37
2022-12-29T09:51:58.573Z,4.38
2022-12-29T09:54:58.071Z,4.40
2022-12-29T09:57:37.264Z,4.44
2022-12-29T10:00:15.190Z,4.46
2022-12-29T10:02:45.782Z,4.47
2022-12-29T10:06:00.535Z,4.50
2022-12-29T10:08:29.899Z,4.52
2022-12-29T10:11:08.656Z,4.54
2022-12-29T10:13:52.527Z,4.57
2022-12-29T10:16:45.001Z,4.59
2022-12-29T10:19:32.731Z,4.64
2022-12-29T10:22:30.815Z,4.64
2022-12-29T10:25:03.715Z,4.66
2022-12-29T10:27:33.866Z,4.67
2022-12-29T10:30:03.182Z,4.69
2022-12-29T10:32:41.572Z,4.70
2022-12-29T10:35:20.990Z,4.73
2022-12-29T10:38:03.522Z,4.74
2022-12-29T10:40:39.510Z,4.76
2022-12-29T10:43:38.476Z,4.77
2022-12-29T10:46:13.925Z,4.78
2022-12-29T10:48:40.659Z,4.80
2022-12-29T10:51:09.708Z,4.81
2022-12-29T10:53:41.188Z,4.83
2022-12-29T10:56:35.131Z,4.85
2022-12-29T10:59:17.199Z,4.87
2022-12-29T11:01:59.511Z,4.90
2022-12-29T11:04:56.677Z,4.91
2022-12-29T11:07:27.383Z,4.92
2022-12-29T11:09:54.843Z,4.94
2022-12-29T11:12:32.095Z,4.97
2022-12-29T11:15:11.374Z,4.99
2022-12-29T11:17:52.554Z,5.00
2022-12-29T11:20:28.592Z,5.04
2022-12-29T11:22:55.417Z,5.05
2022-12-29T11:25:22.467Z,5.07
2022-12-29T11:28:01.429Z,5.10
2022-12-29T11:30:32.970Z,5.12
2022-12-29T11:33:04.443Z,5.15
2022-12-29T11:35:37.749Z,5.16
2022-12-29T11:38:05.645Z,5.18
2022-12-29T11:40:33.068Z,5.19
2022-12-29T11:43:04.858Z,5.20
2022-12-29T11:45:36.031Z,5.22
2022-12-29T11:48:10.563Z,5.25
2022-12-29T11:50:41.123Z,5.27
2022-12-29T11:53:26.126Z,5.28
2022-12-29T11:56:00.343Z,5.30
2022-12-29T11:58:33.656Z,5.29
2022-12-29T12:01:16.828Z,5.31
2022-12-29T12:03:57.494Z,5.32
2022-12-29T12:06:25.467Z,5.32
2022-12-29T12:09:03.817Z,5.35
2022-12-29T12:11:37.384Z,5.36
2022-12-29T12:14:13.661Z,5.37
2022-12-29T12:17:06.125Z,5.39
2022-12-29T12:20:16.959Z,5.39
2022-12-29T12:22:51.872Z,5.40
2022-12-29T12:25:46.339Z,5.40
2022-12-29T12:28:30.527Z,5.40
2022-12-29T12:31:05.881Z,5.39
2022-12-29T12:33:40.137Z,5.38
2022-12-29T12:36:33.253Z,5.41
2022-12-29T12:39:00.457Z,5.44
2022-12-29T12:41:29.979Z,5.44
2022-12-29T12:44:08.926Z,5.46
2022-12-29T12:46:47.497Z,5.47
2022-12-29T12:49:20.260Z,5.48
2022-12-29T12:52:08.345Z,5.49
2022-12-29T12:55:11.951Z,5.49
2022-12-29T12:58:13.865Z,5.50
2022-12-29T13:01:25.859Z,5.51
2022-12-29T13:04:26.394Z,5.51
2022-12-29T13:07:05.889Z,5.50
2022-12-29T13:09:55.851Z,5.51
2022-12-29T13:13:18.048Z,5.51
2022-12-29T13:15:51.576Z,5.49
2022-12-29T13:18:57.187Z,5.50
2022-12-29T13:21:32.581Z,5.51
2022-12-29T13:24:16.277Z,5.50
2022-12-29T13:27:11.044Z,5.51
2022-12-29T13:29:52.553Z,5.51
2022-12-29T13:32:25.225Z,5.53
2022-12-29T13:35:08.948Z,5.53
2022-12-29T13:37:42.394Z,5.56
2022-12-29T13:40:18.432Z,5.56
2022-12-29T13:42:47.244Z,5.57
2022-12-29T13:45:27.494Z,5.57
2022-12-29T13:48:11.050Z,5.58
2022-12-29T13:50:40.729Z,5.60
2022-12-29T13:53:31.646Z,5.60
2022-12-29T13:56:21.596Z,5.59
2022-12-29T13:59:26.444Z,5.62
2022-12-29T14:02:11.147Z,5.62
2022-12-29T14:05:00.365Z,5.63
2022-12-29T14:07:27.478Z,5.63
2022-12-29T14:09:58.718Z,5.64
2022-12-29T14:12:37.189Z,5.64
2022-12-29T14:15:25.490Z,5.65
2022-12-29T14:18:05.740Z,5.66
2022-12-29T14:20:33.741Z,5.67
2022-12-29T14:23:09.554Z,5.69
2022-12-29T14:26:00.832Z,5.70
2022-12-29T14:28:34.162Z,5.70
2022-12-29T14:31:05.685Z,5.72
2022-12-29T14:33:35.076Z,5.72
2022-12-29T14:36:26.494Z,5.72
2022-12-29T14:38:53.358Z,5.73
2022-12-29T14:41:28.654Z,5.74
2022-12-29T14:43:59.776Z,5.73
2022-12-29T14:46:44.444Z,5.75
2022-12-29T14:49:18.623Z,5.75
2022-12-29T14:51:46.349Z,5.77
2022-12-29T14:54:37.875Z,5.78
2022-12-29T14:57:11.665Z,5.78
2022-12-29T14:59:38.768Z,5.79
2022-12-29T15:02:16.859Z,5.78
2022-12-29T15:04:44.811Z,5.79
2022-12-29T15:07:12.459Z,5.81
2022-12-29T15:09:50.371Z,5.80
2022-12-29T15:12:21.418Z,5.81
2022-12-29T15:14:56.847Z,5.81
2022-12-29T15:17:29.140Z,5.82
2022-12-29T15:19:57.938Z,5.82
2022-12-29T15:22:25.882Z,5.82
2022-12-29T15:24:54.718Z,5.83
2022-12-29T15:27:23.770Z,5.85
2022-12-29T15:30:02.845Z,5.85
2022-12-29T15:32:40.527Z,5.86
2022-12-29T15:35:34.416Z,5.85
2022-12-29T15:38:13.266Z,5.86
2022-12-29T15:40:40.074Z,5.85
2022-12-29T15:43:18.614Z,5.85
2022-12-29T15:45:45.790Z,5.85
2022-12-29T15:48:21.166Z,5.85
2022-12-29T15:50:48.289Z,5.86
2022-12-29T15:53:29.512Z,5.85
2022-12-29T15:56:16.665Z,5.85
2022-12-29T15:58:53.297Z,5.85
2022-12-29T16:01:32.440Z,5.83
2022-12-29T16:04:17.379Z,5.84
2022-12-29T16:06:57.465Z,5.84
2022-12-29T16:09:36.160Z,5.83
2022-12-29T16:12:18.483Z,5.84
2022-12-29T16:14:52.961Z,5.85
2022-12-29T16:17:24.535Z,5.86
2022-12-29T16:19:55.407Z,5.87
2022-12-29T16:22:41.902Z,5.88
2022-12-29T16:25:21.592Z,5.89
2022-12-29T16:27:50.724Z,5.89
2022-12-29T16:30:26.583Z,5.92
2022-12-29T16:33:03.649Z,5.94
2022-12-29T16:35:50.111Z,5.94
2022-12-29T16:38:21.604Z,5.96
2022-12-29T16:40:56.286Z,5.96
2022-12-29T16:43:23.154Z,5.96
2022-12-29T16:45:49.844Z,5.98
2022-12-29T16:48:46.853Z,5.98
2022-12-29T16:51:20.366Z,5.97
2022-12-29T16:53:54.491Z,5.98
2022-12-29T16:56:28.177Z,5.98
2022-12-29T16:59:19.926Z,5.99
2022-12-29T17:01:47.144Z,6.00
2022-12-29T17:04:15.280Z,6.01
2022-12-29T17:06:42.288Z,6.01
2022-12-29T17:09:23.678Z,6.00
2022-12-29T17:12:02.590Z,6.02
2022-12-29T17:14:43.122Z,6.02
2022-12-29T17:17:20.915Z,6.02
2022-12-29T17:19:56.701Z,6.02
2022-12-29T17:22:26.011Z,6.02
2022-12-29T17:24:54.704Z,6.02
2022-12-29T17:27:37.807Z,6.04
2022-12-29T17:30:13.927Z,6.04
2022-12-29T17:32:43.113Z,6.03
2022-12-29T17:35:21.476Z,6.04
2022-12-29T17:37:49.520Z,6.05
2022-12-29T17:40:19.308Z,6.05
2022-12-29T17:42:52.438Z,6.07
2022-12-29T17:45:23.661Z,6.09
2022-12-29T17:47:50.928Z,6.09
2022-12-29T17:50:21.362Z,6.09
2022-12-29T17:53:00.125Z,6.09
2022-12-29T17:55:32.780Z,6.10
2022-12-29T17:58:16.952Z,6.07
2022-12-29T18:00:43.758Z,6.05
2022-12-29T18:03:38.379Z,6.04
2022-12-29T18:06:08.398Z,6.01
2022-12-29T18:08:37.069Z,6.02
2022-12-29T18:11:04.238Z,6.01
2022-12-29T18:13:45.465Z,6.00
2022-12-29T18:16:13.427Z,5.99
2022-12-29T18:18:40.319Z,5.97
2022-12-29T18:21:07.070Z,5.95
2022-12-29T18:23:37.482Z,5.93
2022-12-29T18:26:11.565Z,5.93
2022-12-29T18:28:38.225Z,5.93
2022-12-29T18:31:30.581Z,5.94
2022-12-29T18:33:59.447Z,5.93
2022-12-29T18:36:26.344Z,5.94
2022-12-29T18:38:54.721Z,5.96
2022-12-29T18:41:29.035Z,5.96
2022-12-29T18:43:56.161Z,5.96
2022-12-29T18:46:23.869Z,5.96
2022-12-29T18:48:51.625Z,5.98
2022-12-29T18:51:21.411Z,5.97
2022-12-29T18:53:48.853Z,5.97
2022-12-29T18:56:15.593Z,5.97
2022-12-29T18:58:42.313Z,5.97
2022-12-29T19:01:20.079Z,5.94
2022-12-29T19:03:47.341Z,5.94
2022-12-29T19:06:14.039Z,5.93
2022-12-29T19:08:40.988Z,5.93
2022-12-29T19:11:07.897Z,5.92
2022-12-29T19:13:34.641Z,5.94
2022-12-29T19:16:01.394Z,5.94
2022-12-29T19:18:46.334Z,5.94
2022-12-29T19:21:15.430Z,5.97
2022-12-29T19:23:42.324Z,5.98
2022-12-29T19:26:27.378Z,5.99
2022-12-29T19:28:54.052Z,6.00
2022-12-29T19:31:20.773Z,6.00
2022-12-29T19:33:47.485Z,6.00
2022-12-29T19:36:18.229Z,6.01
2022-12-29T19:38:46.196Z,6.04
2022-12-29T19:41:14.322Z,6.04
2022-12-29T19:43:41.099Z,6.06
2022-12-29T19:46:10.154Z,6.05
2022-12-29T19:48:37.305Z,6.05
2022-12-29T19:51:09.324Z,6.08
2022-12-29T19:53:36.681Z,6.09
2022-12-29T19:56:06.196Z,6.09
2022-12-29T19:58:34.819Z,6.10
2022-12-29T20:01:13.881Z,6.12
2022-12-29T20:03:41.504Z,6.13
2022-12-29T20:06:09.841Z,6.15
2022-12-29T20:08:37.271Z,6.15
2022-12-29T20:11:06.892Z,6.16
2022-12-29T20:13:35.102Z,6.14
2022-12-29T20:16:04.012Z,6.16
2022-12-29T20:18:31.449Z,6.17
2022-12-29T20:21:06.899Z,6.15
2022-12-29T20:23:34.940Z,6.16
2022-12-29T20:26:01.780Z,6.16
2022-12-29T20:28:29.064Z,6.19
2022-12-29T20:30:58.801Z,6.19
2022-12-29T20:33:25.641Z,6.20
2022-12-29T20:35:52.405Z,6.20
2022-12-29T20:38:19.622Z,6.21
2022-12-29T20:40:47.090Z,6.22
2022-12-29T20:43:16.164Z,6.21
2022-12-29T20:45:42.921Z,6.22
2022-12-29T20:48:09.871Z,6.20
2022-12-29T20:50:36.521Z,6.20
2022-12-29T20:53:03.637Z,6.18
2022-12-29T20:55:30.447Z,6.15
2022-12-29T20:58:23.020Z,6.14
2022-12-29T21:00:44.451Z,6.12
2022-12-29T21:03:11.192Z,6.11
2022-12-29T21:05:38.786Z,6.09
2022-12-29T21:08:05.741Z,6.08
2022-12-29T21:10:32.493Z,6.05
2022-12-29T21:12:59.196Z,6.04
2022-12-29T21:15:25.913Z,6.05
2022-12-29T21:17:52.557Z,6.02
2022-12-29T21:20:30.138Z,6.02
2022-12-29T21:22:59.610Z,5.97
2022-12-29T21:25:26.773Z,6.02
2022-12-29T21:27:53.443Z,6.02
2022-12-29T21:30:20.117Z,6.01
2022-12-29T21:32:46.792Z,5.99
2022-12-29T21:35:13.461Z,5.99
2022-12-29T21:37:40.182Z,5.98
2022-12-29T21:40:07.194Z,5.97
2022-12-29T21:42:34.380Z,5.98
2022-12-29T21:45:20.980Z,5.97
2022-12-29T21:48:07.203Z,5.96
2022-12-29T21:50:36.846Z,5.95
2022-12-29T21:53:03.509Z,5.94
2022-12-29T21:55:30.167Z,5.94
2022-12-29T21:58:32.292Z,5.93
2022-12-29T22:01:17.600Z,5.93
2022-12-29T22:04:02.819Z,5.94
2022-12-29T22:06:48.226Z,5.92
2022-12-29T22:09:36.215Z,5.91
2022-12-29T22:12:25.049Z,5.91
2022-12-29T22:14:51.682Z,5.90
2022-12-29T22:17:19.591Z,5.90
2022-12-29T22:19:46.674Z,5.92
2022-12-29T22:22:13.663Z,5.91
2022-12-29T22:24:40.324Z,5.93
2022-12-29T22:27:07.055Z,5.94
2022-12-29T22:29:33.707Z,5.94
2022-12-29T22:32:00.456Z,5.94
2022-12-29T22:34:27.123Z,5.93
2022-12-29T22:36:53.801Z,5.92
2022-12-29T22:39:20.458Z,5.93
2022-12-29T22:41:47.104Z,5.92
2022-12-29T22:44:13.771Z,5.93
2022-12-29T22:46:40.474Z,5.93
2022-12-29T22:49:07.125Z,5.94
2022-12-29T22:51:33.835Z,5.93
2022-12-29T22:54:00.519Z,5.92
2022-12-29T22:56:27.190Z,5.91
2022-12-29T22:58:53.990Z,5.91
2022-12-29T23:01:23.596Z,5.91
2022-12-29T23:03:50.664Z,5.90
2022-12-29T23:06:17.705Z,5.88
2022-12-29T23:08:45.274Z,5.89
2022-12-29T23:11:13.460Z,5.91
2022-12-29T23:13:41.219Z,5.88
2022-12-29T23:16:08.211Z,5.88
2022-12-29T23:18:35.015Z,5.88
2022-12-29T23:21:01.784Z,5.86
2022-12-29T23:23:49.566Z,5.87
2022-12-29T23:26:18.153Z,5.84
2022-12-29T23:28:44.849Z,5.84
2022-12-29T23:31:11.828Z,5.82
2022-12-29T23:33:38.497Z,5.80
2022-12-29T23:36:05.592Z,5.78
2022-12-29T23:38:32.367Z,5.78
2022-12-29T23:40:59.053Z,5.77
2022-12-29T23:43:26.397Z,5.76
2022-12-29T23:45:53.117Z,5.74
2022-12-29T23:48:20.121Z,5.71
2022-12-29T23:50:46.956Z,5.69
2022-12-29T23:53:13.752Z,5.68
2022-12-29T23:55:44.686Z,5.68
2022-12-29T23:58:11.492Z,5.67
